Time;durP1;ratioP1;P1;durP2;ratioP2;P2;SDS_P1;SDS_P2;PMS_P1;PMS_P2;Temp;Humidity;BMP_temperature;BMP_pressure;BME280_temperature;BME280_humidity;BME280_pressure;Samples;Min_cycle;Max_cycle;Signal;HPM_P1;HPM_P2
2021/12/11 00:00:33;;;;;;;26.77;15.20;;;-1.10;99.90;;;;;;4975230;28;20042;-74
2021/12/11 00:03:14;;;;;;;22.08;15.15;;;-1.10;99.90;;;;;;4982725;28;20053;-74
2021/12/11 00:05:44;;;;;;;24.77;16.30;;;-1.10;99.90;;;;;;4990333;28;20046;-74
2021/12/11 00:08:16;;;;;;;25.00;15.27;;;-1.10;99.90;;;;;;4976242;28;20046;-73
2021/12/11 00:10:46;;;;;;;16.30;10.23;;;-1.10;99.90;;;;;;4978551;28;20126;-73
2021/12/11 00:13:16;;;;;;;19.40;11.80;;;-1.10;99.90;;;;;;4975598;28;20285;-75
2021/12/11 00:15:46;;;;;;;19.20;13.50;;;-1.10;99.90;;;;;;4995218;28;20049;-73
2021/12/11 00:18:23;;;;;;;14.88;10.27;;;-1.10;99.90;;;;;;4977099;28;20153;-73
2021/12/11 00:20:55;;;;;;;18.38;13.05;;;-1.20;99.90;;;;;;4991135;28;20053;-74
2021/12/11 00:23:45;;;;;;;25.65;15.82;;;-1.30;99.90;;;;;;4977377;28;20038;-73
2021/12/11 00:26:12;;;;;;;22.02;14.80;;;-1.30;99.90;;;;;;4973584;28;20074;-73
2021/12/11 00:28:46;;;;;;;24.00;14.80;;;-1.40;99.90;;;;;;4976171;28;20049;-73
2021/12/11 00:31:16;;;;;;;22.35;14.25;;;-1.40;99.90;;;;;;4973390;28;20056;-73
2021/12/11 00:33:42;;;;;;;20.23;14.45;;;-1.40;99.90;;;;;;4977831;28;20089;-73
2021/12/11 00:36:15;;;;;;;21.13;14.63;;;-1.40;99.90;;;;;;4975162;28;20138;-73
2021/12/11 00:38:42;;;;;;;20.35;13.88;;;-1.40;99.90;;;;;;4975830;28;20170;-73
2021/12/11 00:41:12;;;;;;;19.25;12.30;;;-1.40;99.90;;;;;;4971381;28;20042;-73
2021/12/11 00:43:40;;;;;;;20.20;13.13;;;-1.40;99.90;;;;;;4977168;28;20121;-74
2021/12/11 00:46:13;;;;;;;21.00;14.20;;;-1.40;99.90;;;;;;4963133;28;20046;-74
2021/12/11 00:48:39;;;;;;;20.02;14.20;;;-1.40;99.90;;;;;;4973983;28;20046;-73
2021/12/11 00:51:15;;;;;;;20.58;13.57;;;-1.50;99.90;;;;;;4971911;28;20138;-73
2021/12/11 00:53:57;;;;;;;21.88;14.85;;;-1.50;99.90;;;;;;4975829;28;20413;-73
2021/12/11 00:56:27;;;;;;;27.85;14.90;;;-1.40;99.90;;;;;;4977837;28;20097;-73
2021/12/11 00:58:55;;;;;;;21.27;15.55;;;-1.40;99.90;;;;;;4990443;28;20039;-73
2021/12/11 01:01:25;;;;;;;25.08;15.15;;;-1.40;99.90;;;;;;4967212;28;20035;-73
2021/12/11 01:03:58;;;;;;;22.30;14.98;;;-1.40;99.90;;;;;;4961419;28;20045;-73
2021/12/11 01:06:28;;;;;;;21.33;14.63;;;-1.40;99.90;;;;;;4992769;28;20042;-73
2021/12/11 01:09:04;;;;;;;23.75;15.95;;;-1.40;99.90;;;;;;4976510;28;20050;-73
2021/12/11 01:11:37;;;;;;;23.50;15.90;;;-1.30;99.90;;;;;;4970667;28;20049;-73
2021/12/11 01:14:20;;;;;;;22.02;14.52;;;-1.30;99.90;;;;;;4976584;28;20085;-73
2021/12/11 01:17:05;;;;;;;22.65;14.73;;;-1.30;99.90;;;;;;4976407;28;20051;-74
2021/12/11 01:19:37;;;;;;;23.77;15.85;;;-1.30;99.90;;;;;;4973780;28;20043;-74
2021/12/11 01:22:20;;;;;;;24.17;15.65;;;-1.30;99.90;;;;;;4969473;28;20036;-74
2021/12/11 01:24:48;;;;;;;26.35;16.23;;;-1.30;99.90;;;;;;4995563;28;20039;-73
2021/12/11 01:27:17;;;;;;;24.58;15.73;;;-1.30;99.90;;;;;;4968673;28;20045;-73
2021/12/11 01:29:45;;;;;;;25.42;16.52;;;-1.30;99.90;;;;;;4974865;28;20058;-74
2021/12/11 01:32:12;;;;;;;32.00;17.88;;;-1.30;99.90;;;;;;4976543;28;20535;-74
2021/12/11 01:34:38;;;;;;;25.92;17.45;;;-1.30;99.90;;;;;;4954736;28;20062;-73
2021/12/11 01:37:05;;;;;;;31.60;18.55;;;-1.30;99.90;;;;;;4975458;28;20588;-72
2021/12/11 01:39:34;;;;;;;29.80;16.08;;;-1.30;99.90;;;;;;4974502;28;20398;-73
2021/12/11 01:42:06;;;;;;;25.10;15.52;;;-1.30;99.90;;;;;;4976446;28;20432;-72
2021/12/11 01:44:35;;;;;;;28.57;18.37;;;-1.30;99.90;;;;;;4973747;28;20520;-72
2021/12/11 01:47:24;;;;;;;26.58;16.83;;;-1.40;99.90;;;;;;4974523;28;20792;-72
2021/12/11 01:49:55;;;;;;;25.55;16.27;;;-1.40;99.90;;;;;;4975563;28;20455;-72
2021/12/11 01:52:38;;;;;;;23.85;15.18;;;-1.40;99.90;;;;;;4976584;28;20046;-72
2021/12/11 01:55:17;;;;;;;23.23;15.23;;;-1.40;99.90;;;;;;4993985;28;20058;-72
2021/12/11 01:57:49;;;;;;;29.65;17.40;;;-1.40;99.90;;;;;;4974572;28;20452;-72
2021/12/11 02:00:41;;;;;;;28.80;17.05;;;-1.40;99.90;;;;;;4978722;28;20648;-72
2021/12/11 02:03:11;;;;;;;26.73;16.70;;;-1.40;99.90;;;;;;4967851;28;20444;-72
2021/12/11 02:05:40;;;;;;;23.00;16.27;;;-1.40;99.90;;;;;;4953792;28;20481;-72
2021/12/11 02:08:09;;;;;;;24.30;16.77;;;-1.50;99.90;;;;;;4975815;28;20468;-72
2021/12/11 02:10:50;;;;;;;30.02;17.77;;;-1.50;99.90;;;;;;4976608;28;20061;-72
2021/12/11 02:13:23;;;;;;;22.05;15.25;;;-1.40;99.90;;;;;;4975732;28;20042;-72
2021/12/11 02:15:52;;;;;;;26.88;16.05;;;-1.50;99.90;;;;;;4975065;28;20452;-72
2021/12/11 02:18:33;;;;;;;23.15;15.38;;;-1.50;99.90;;;;;;4976288;28;20603;-72
2021/12/11 02:21:05;;;;;;;24.77;15.50;;;-1.50;99.90;;;;;;4972984;28;20145;-73
2021/12/11 02:23:31;;;;;;;25.38;16.38;;;-1.50;99.90;;;;;;4976538;28;20108;-72
2021/12/11 02:26:02;;;;;;;27.27;16.10;;;-1.50;99.90;;;;;;4975586;28;20042;-72
2021/12/11 02:28:39;;;;;;;24.42;16.77;;;-1.50;99.90;;;;;;4976291;28;20042;-72
2021/12/11 02:31:31;;;;;;;27.10;16.77;;;-1.50;99.90;;;;;;4974837;28;20432;-72
2021/12/11 02:34:09;;;;;;;25.58;16.95;;;-1.50;99.90;;;;;;4988702;28;20401;-72
2021/12/11 02:36:50;;;;;;;21.48;14.93;;;-1.50;99.90;;;;;;4966294;28;20082;-72
2021/12/11 02:39:19;;;;;;;19.90;14.27;;;-1.50;99.90;;;;;;4973126;28;20085;-72
2021/12/11 02:41:51;;;;;;;26.55;14.80;;;-1.50;99.90;;;;;;4974023;28;20042;-72
2021/12/11 02:44:26;;;;;;;22.42;14.57;;;-1.60;99.90;;;;;;4956550;28;20045;-72
2021/12/11 02:47:13;;;;;;;24.48;16.02;;;-1.60;99.90;;;;;;4973804;28;20517;-72
2021/12/11 02:49:42;;;;;;;26.02;15.15;;;-1.60;99.90;;;;;;4979410;28;20657;-72
2021/12/11 02:52:21;;;;;;;23.23;14.63;;;-1.70;99.90;;;;;;4977035;28;20042;-72
2021/12/11 02:55:37;;;;;;;22.95;13.55;;;-1.70;99.90;;;;;;4969596;28;20050;-72
2021/12/11 02:58:10;;;;;;;17.45;12.27;;;-1.70;99.90;;;;;;4916995;29;20545;-72
2021/12/11 03:00:40;;;;;;;;;;;-1.70;99.90;;;;;;4973245;28;20500;-72
2021/12/11 03:03:09;;;;;;;16.65;12.15;;;-1.70;99.90;;;;;;4974458;28;19917;-72
2021/12/11 03:05:45;;;;;;;22.30;13.50;;;-1.80;99.90;;;;;;4974217;28;20523;-72
2021/12/11 03:08:15;;;;;;;19.48;13.25;;;-1.80;99.90;;;;;;4974746;28;20109;-72
2021/12/11 03:10:45;;;;;;;20.17;14.45;;;-1.80;99.90;;;;;;4975178;28;20389;-72
2021/12/11 03:13:11;;;;;;;20.65;14.05;;;-1.80;99.90;;;;;;4975110;28;20046;-72
2021/12/11 03:15:37;;;;;;;21.33;13.85;;;-1.80;99.90;;;;;;4975050;28;20610;-72
2021/12/11 03:18:04;;;;;;;26.23;16.42;;;-1.80;99.90;;;;;;4974593;28;20046;-72
2021/12/11 03:20:31;;;;;;;28.65;16.77;;;-1.90;99.90;;;;;;4975075;28;20129;-72
2021/12/11 03:22:57;;;;;;;27.88;17.63;;;-1.90;99.90;;;;;;4975084;28;20378;-72
2021/12/11 03:25:26;;;;;;;27.83;17.17;;;-1.90;99.90;;;;;;4991432;28;20041;-72
2021/12/11 03:27:53;;;;;;;27.20;16.63;;;-2.00;99.90;;;;;;4974531;28;20042;-72
2021/12/11 03:30:27;;;;;;;29.98;18.00;;;-2.00;99.90;;;;;;4974707;28;20130;-72
2021/12/11 03:32:57;;;;;;;30.25;17.95;;;-2.00;99.90;;;;;;4974162;28;20082;-72
2021/12/11 03:35:23;;;;;;;27.35;16.98;;;-2.00;99.90;;;;;;4974260;28;20038;-72
2021/12/11 03:37:49;;;;;;;27.92;18.20;;;-2.00;99.90;;;;;;4974373;28;20527;-72
2021/12/11 03:40:16;;;;;;;25.80;17.77;;;-2.00;99.90;;;;;;4975061;28;20555;-72
2021/12/11 03:42:44;;;;;;;28.15;17.77;;;-2.00;99.90;;;;;;4974817;28;20520;-72
2021/12/11 03:45:14;;;;;;;29.25;16.85;;;-2.00;99.90;;;;;;4990874;28;20595;-72
2021/12/11 03:47:45;;;;;;;30.45;17.90;;;-2.00;99.90;;;;;;4974399;28;20489;-72
2021/12/11 03:50:13;;;;;;;29.45;18.35;;;-2.00;99.90;;;;;;4972154;28;20509;-72
2021/12/11 03:52:41;;;;;;;33.60;19.13;;;-1.90;99.90;;;;;;4962146;28;20504;-72
2021/12/11 03:55:09;;;;;;;30.35;19.15;;;-1.90;99.90;;;;;;4974304;28;20460;-72
2021/12/11 03:57:37;;;;;;;31.73;19.73;;;-1.90;99.90;;;;;;4974145;28;20554;-72
2021/12/11 04:00:09;;;;;;;29.58;19.45;;;-1.90;99.90;;;;;;4975063;28;20038;-72
2021/12/11 04:02:36;;;;;;;32.47;18.67;;;-1.90;99.90;;;;;;4979783;28;20060;-73
2021/12/11 04:05:05;;;;;;;34.22;18.77;;;-1.90;99.90;;;;;;4990578;28;20636;-73
2021/12/11 04:07:42;;;;;;;27.75;18.08;;;-1.90;99.90;;;;;;4964102;28;20536;-74
2021/12/11 04:10:10;;;;;;;27.48;17.50;;;-1.90;99.90;;;;;;4974954;28;20050;-73
2021/12/11 04:12:36;;;;;;;28.75;17.17;;;-2.00;99.90;;;;;;4955471;28;20054;-73
2021/12/11 04:15:04;;;;;;;29.92;17.80;;;-2.00;99.90;;;;;;4955205;28;20140;-73
2021/12/11 04:17:30;;;;;;;32.00;17.17;;;-2.00;99.90;;;;;;4967320;28;20420;-73
2021/12/11 04:20:03;;;;;;;27.52;16.73;;;-2.00;99.90;;;;;;4965784;28;20059;-73
2021/12/11 04:22:29;;;;;;;28.15;16.92;;;-2.00;99.90;;;;;;4962395;28;20109;-73
2021/12/11 04:24:56;;;;;;;26.98;16.63;;;-2.00;99.90;;;;;;4954895;28;20486;-73
2021/12/11 04:27:24;;;;;;;27.05;17.25;;;-2.00;99.90;;;;;;4968919;28;20042;-73
2021/12/11 04:29:51;;;;;;;27.98;16.67;;;-2.10;99.90;;;;;;4974412;28;20084;-74
2021/12/11 04:32:20;;;;;;;34.60;19.50;;;-2.10;99.90;;;;;;4974216;28;20050;-74
2021/12/11 04:34:46;;;;;;;29.83;17.67;;;-2.10;99.90;;;;;;4973187;28;20074;-73
2021/12/11 04:37:18;;;;;;;27.23;16.40;;;-2.10;99.90;;;;;;4970262;28;20065;-73
2021/12/11 04:39:48;;;;;;;29.75;17.73;;;-2.10;99.90;;;;;;4967307;28;20062;-73
2021/12/11 04:44:49;;;;;;;30.10;17.60;;;-2.10;99.90;;;;;;5041730;23;20053;-71
2021/12/11 04:47:43;;;;;;;24.70;15.77;;;-2.10;99.90;;;;;;4990929;28;20041;-71
2021/12/11 04:50:29;;;;;;;33.95;17.13;;;-2.10;99.90;;;;;;4992015;28;20425;-71
2021/12/11 04:52:58;;;;;;;26.98;16.27;;;-2.10;99.90;;;;;;5007531;28;20124;-71
2021/12/11 05:01:24;;;;;;;29.25;17.40;;;-2.20;99.90;;;;;;4983253;28;20579;-71
2021/12/11 05:06:58;;;;;;;28.42;18.38;;;-2.20;99.90;;;;;;5004099;28;20057;-71
2021/12/11 05:09:36;;;;;;;29.35;17.75;;;-2.20;99.90;;;;;;5001544;28;20034;-71
2021/12/11 05:12:26;;;;;;;33.00;18.20;;;-2.20;99.90;;;;;;5016787;28;20045;-71
2021/12/11 05:14:52;;;;;;;38.88;18.83;;;-2.30;99.90;;;;;;5015945;28;20037;-71
2021/12/11 05:17:20;;;;;;;35.72;20.77;;;-2.30;99.90;;;;;;5016186;28;20073;-71
2021/12/11 05:19:46;;;;;;;48.83;23.08;;;-2.30;99.90;;;;;;5033232;28;20565;-72
2021/12/11 05:22:13;;;;;;;40.42;23.15;;;-2.30;99.90;;;;;;5034242;28;20116;-72
2021/12/11 05:24:43;;;;;;;44.22;24.75;;;-2.30;99.90;;;;;;5016497;28;20052;-72
2021/12/11 05:27:10;;;;;;;41.35;22.83;;;-2.30;99.90;;;;;;5019141;28;20061;-72
2021/12/11 05:29:36;;;;;;;43.22;22.63;;;-2.30;99.90;;;;;;5016950;28;20045;-72
2021/12/11 05:32:04;;;;;;;48.65;25.83;;;-2.30;99.90;;;;;;5016687;28;20068;-71
2021/12/11 05:34:30;;;;;;;44.45;24.42;;;-2.20;99.90;;;;;;5016206;28;20034;-71
2021/12/11 05:36:56;;;;;;;46.53;25.75;;;-2.20;99.90;;;;;;5026271;28;20525;-71
2021/12/11 05:39:22;;;;;;;47.13;25.77;;;-2.20;99.90;;;;;;5016528;28;20510;-71
2021/12/11 05:41:48;;;;;;;46.30;25.30;;;-2.10;99.90;;;;;;5016193;28;20507;-71
2021/12/11 05:44:17;;;;;;;57.90;27.95;;;-2.10;99.90;;;;;;5015752;28;20041;-71
2021/12/11 05:46:43;;;;;;;53.97;27.60;;;-2.10;99.90;;;;;;5033283;28;20038;-71
2021/12/11 05:49:10;;;;;;;42.22;23.38;;;-2.00;99.90;;;;;;5016264;28;20049;-71
2021/12/11 05:51:39;;;;;;;32.40;20.10;;;-2.00;99.90;;;;;;5016038;28;20128;-71
2021/12/11 05:54:10;;;;;;;34.30;20.60;;;-2.00;99.90;;;;;;5014538;28;20060;-72
2021/12/11 05:56:38;;;;;;;48.30;25.63;;;-2.10;99.90;;;;;;5015160;28;20135;-72
2021/12/11 05:59:06;;;;;;;45.45;26.33;;;-2.10;99.90;;;;;;5033573;28;20159;-71
2021/12/11 06:01:41;;;;;;;55.67;28.67;;;-2.00;99.90;;;;;;5015356;28;20048;-71
2021/12/11 06:04:13;;;;;;;49.13;27.50;;;-2.00;99.90;;;;;;5015799;28;20094;-71
2021/12/11 06:06:40;;;;;;;52.53;28.23;;;-2.00;99.90;;;;;;5032695;28;20037;-72
2021/12/11 06:09:08;;;;;;;51.40;27.60;;;-1.90;99.90;;;;;;5033528;28;20048;-71
2021/12/11 06:11:35;;;;;;;48.95;28.25;;;-1.90;99.90;;;;;;5015962;28;20079;-71
2021/12/11 06:14:02;;;;;;;53.30;28.48;;;-1.90;99.90;;;;;;5033312;28;20041;-71
2021/12/11 06:16:28;;;;;;;45.55;25.27;;;-1.90;99.90;;;;;;5021727;28;20060;-71
2021/12/11 06:18:54;;;;;;;42.22;23.65;;;-1.90;99.90;;;;;;5018463;28;20042;-71
2021/12/11 06:21:21;;;;;;;39.95;23.13;;;-1.90;99.90;;;;;;5019990;28;20048;-71
2021/12/11 06:23:47;;;;;;;37.53;23.25;;;-1.90;99.90;;;;;;4989748;28;20037;-71
2021/12/11 06:26:13;;;;;;;37.53;22.60;;;-2.00;99.90;;;;;;5004738;28;20106;-71
2021/12/11 06:28:39;;;;;;;32.45;20.58;;;-2.00;99.90;;;;;;5022227;28;20491;-71
2021/12/11 06:31:05;;;;;;;34.00;21.58;;;-2.10;99.90;;;;;;5022793;28;20033;-71
2021/12/11 06:33:33;;;;;;;42.53;23.98;;;-2.10;99.90;;;;;;5017849;28;20041;-71
2021/12/11 06:36:03;;;;;;;39.17;22.48;;;-2.20;99.90;;;;;;5021380;28;20175;-71
2021/12/11 06:38:31;;;;;;;46.90;25.27;;;-2.20;99.90;;;;;;5020993;28;20068;-71
2021/12/11 06:40:59;;;;;;;41.00;24.08;;;-2.10;99.90;;;;;;5025843;28;20037;-71
2021/12/11 06:43:25;;;;;;;39.30;23.08;;;-2.10;99.90;;;;;;5042835;28;20045;-71
2021/12/11 06:45:53;;;;;;;30.52;20.35;;;-2.10;99.90;;;;;;5021728;28;20041;-72
2021/12/11 06:48:19;;;;;;;40.20;22.15;;;-2.10;99.90;;;;;;5020827;28;20045;-72
2021/12/11 06:50:46;;;;;;;36.33;22.15;;;-2.10;99.90;;;;;;5017781;28;20037;-71
2021/12/11 06:53:20;;;;;;;33.65;21.13;;;-2.10;99.90;;;;;;4989558;28;20083;-71
2021/12/11 06:55:45;;;;;;;32.80;20.23;;;-2.20;99.90;;;;;;5004072;28;20052;-72
2021/12/11 06:58:11;;;;;;;36.33;21.30;;;-2.20;99.90;;;;;;5011502;28;20038;-71
2021/12/11 07:00:37;;;;;;;47.50;23.75;;;-2.20;99.90;;;;;;5004735;28;20044;-71
2021/12/11 07:03:03;;;;;;;38.35;23.17;;;-2.30;99.90;;;;;;5039410;28;20462;-71
2021/12/11 07:05:29;;;;;;;45.15;25.73;;;-2.20;99.90;;;;;;5004216;28;20510;-72
2021/12/11 07:07:55;;;;;;;40.47;23.70;;;-2.30;99.90;;;;;;5038157;28;20048;-71
2021/12/11 07:10:23;;;;;;;40.83;24.55;;;-2.20;99.90;;;;;;5021690;28;20064;-71
2021/12/11 07:12:50;;;;;;;39.75;24.00;;;-2.20;99.90;;;;;;5039213;28;20033;-71
2021/12/11 07:15:17;;;;;;;39.92;24.55;;;-2.20;99.90;;;;;;5020843;28;20052;-71
2021/12/11 07:17:42;;;;;;;42.15;24.00;;;-2.20;99.90;;;;;;5020988;28;20075;-71
2021/12/11 07:20:12;;;;;;;42.83;24.83;;;-2.20;99.90;;;;;;5033559;28;20093;-71
2021/12/11 07:22:41;;;;;;;40.30;24.20;;;-2.20;99.90;;;;;;5037274;28;20089;-71
2021/12/11 07:25:17;;;;;;;42.03;24.40;;;-2.20;99.90;;;;;;5021471;28;20048;-71
2021/12/11 07:27:44;;;;;;;37.33;23.23;;;-2.20;99.90;;;;;;5028261;28;20033;-71
2021/12/11 07:30:10;;;;;;;41.30;24.08;;;-2.20;99.90;;;;;;5037208;28;20092;-72
2021/12/11 07:32:35;;;;;;;36.85;24.30;;;-2.20;99.90;;;;;;5019231;28;20069;-70
2021/12/11 07:35:02;;;;;;;40.97;25.30;;;-2.20;99.90;;;;;;5019245;28;20045;-71
2021/12/11 07:37:27;;;;;;;44.38;25.13;;;-2.20;99.90;;;;;;5038681;28;20042;-72
2021/12/11 07:39:53;;;;;;;39.17;23.95;;;-2.20;99.90;;;;;;5037918;28;20066;-71
2021/12/11 07:42:19;;;;;;;37.58;23.48;;;-2.20;99.90;;;;;;5037155;28;20040;-71
2021/12/11 07:44:45;;;;;;;39.35;22.17;;;-2.20;99.90;;;;;;5019564;28;20048;-71
2021/12/11 07:47:11;;;;;;;46.85;23.67;;;-2.20;99.90;;;;;;5019867;28;20045;-71
2021/12/11 07:49:36;;;;;;;33.53;21.67;;;-2.20;99.90;;;;;;5018353;28;20125;-71
2021/12/11 07:52:04;;;;;;;41.60;24.08;;;-2.20;99.90;;;;;;5013818;28;20064;-72
2021/12/11 07:54:30;;;;;;;40.30;24.15;;;-2.20;99.90;;;;;;5001998;28;20442;-72
2021/12/11 07:56:55;;;;;;;35.75;22.50;;;-2.20;99.90;;;;;;5012745;28;20095;-72
2021/12/11 07:59:22;;;;;;;34.35;21.80;;;-2.20;99.90;;;;;;5010233;28;20052;-72
2021/12/11 08:01:50;;;;;;;33.90;21.73;;;-2.20;99.90;;;;;;5013147;28;20041;-71
2021/12/11 08:04:16;;;;;;;33.17;20.83;;;-2.20;99.90;;;;;;5012556;28;20462;-71
2021/12/11 08:06:42;;;;;;;34.42;19.05;;;-2.20;99.90;;;;;;5030922;28;20068;-71
2021/12/11 08:09:11;;;;;;;34.30;20.85;;;-2.20;99.90;;;;;;5015005;28;20029;-72
2021/12/11 08:11:38;;;;;;;42.63;22.83;;;-2.30;99.90;;;;;;5013572;28;20560;-72
2021/12/11 08:14:04;;;;;;;39.33;22.73;;;-2.30;99.90;;;;;;5012541;28;20037;-71
2021/12/11 08:16:35;;;;;;;42.90;23.85;;;-2.30;99.90;;;;;;5023637;28;20124;-71
2021/12/11 08:19:03;;;;;;;39.35;22.88;;;-2.20;99.90;;;;;;5033142;28;20452;-71
2021/12/11 08:21:29;;;;;;;36.58;22.77;;;-2.20;99.90;;;;;;5034384;28;20104;-72
2021/12/11 08:23:56;;;;;;;37.78;22.02;;;-2.20;99.90;;;;;;5015789;28;20041;-72
2021/12/11 08:26:24;;;;;;;37.30;24.17;;;-2.20;99.90;;;;;;5015685;28;20391;-71
2021/12/11 08:28:51;;;;;;;38.75;23.63;;;-2.20;99.90;;;;;;5015908;28;20395;-71
2021/12/11 08:31:18;;;;;;;45.13;25.05;;;-2.20;99.90;;;;;;5015696;28;20388;-71
2021/12/11 08:33:45;;;;;;;43.80;25.23;;;-2.10;99.90;;;;;;5015846;28;20575;-72
2021/12/11 08:36:12;;;;;;;45.38;26.20;;;-2.10;99.90;;;;;;5015079;28;20048;-72
2021/12/11 08:38:37;;;;;;;42.88;24.50;;;-2.20;99.90;;;;;;5016803;28;20458;-72
2021/12/11 08:41:07;;;;;;;41.25;24.25;;;-2.10;99.90;;;;;;5035192;28;20080;-72
2021/12/11 08:43:33;;;;;;;38.40;23.90;;;-2.10;99.90;;;;;;5017418;28;20048;-72
2021/12/11 08:46:14;;;;;;;41.15;24.38;;;-2.10;99.90;;;;;;5016910;28;20052;-72
2021/12/11 08:48:49;;;;;;;41.97;24.75;;;-2.10;99.90;;;;;;5017511;28;20438;-72
2021/12/11 08:51:23;;;;;;;49.75;29.45;;;-2.10;99.90;;;;;;5017112;28;20433;-71
2021/12/11 08:53:51;;;;;;;58.15;30.40;;;-2.10;99.90;;;;;;5017263;28;20049;-72
2021/12/11 08:56:18;;;;;;;53.58;31.50;;;-2.00;99.90;;;;;;5034592;28;20049;-72
2021/12/11 08:58:45;;;;;;;56.30;31.75;;;-1.90;99.90;;;;;;5017186;28;20041;-72
2021/12/11 09:01:24;;;;;;;66.18;35.00;;;-1.90;99.90;;;;;;5034834;28;20037;-72
2021/12/11 09:04:02;;;;;;;56.95;33.53;;;-1.80;99.90;;;;;;5034358;28;20060;-72
2021/12/11 09:06:46;;;;;;;61.75;35.40;;;-1.70;99.90;;;;;;5034500;28;20251;-71
2021/12/11 09:09:26;;;;;;;58.00;34.72;;;-1.60;99.90;;;;;;5016924;28;20052;-71
2021/12/11 09:12:04;;;;;;;62.60;35.03;;;-1.60;99.90;;;;;;5016638;28;20050;-71
2021/12/11 09:14:36;;;;;;;68.32;36.33;;;-1.40;99.90;;;;;;5015990;28;20045;-71
2021/12/11 09:17:10;;;;;;;73.05;38.25;;;-1.40;99.90;;;;;;5034385;28;20056;-71
2021/12/11 09:19:44;;;;;;;69.22;38.30;;;-1.30;99.90;;;;;;5033516;28;20064;-71
2021/12/11 09:22:22;;;;;;;75.03;39.75;;;-1.20;99.90;;;;;;5033147;28;20187;-71
2021/12/11 09:24:51;;;;;;;79.00;40.63;;;-1.20;99.90;;;;;;5016247;28;20065;-71
2021/12/11 09:27:32;;;;;;;80.05;41.85;;;-1.10;99.90;;;;;;5016584;28;20103;-71
2021/12/11 09:30:07;;;;;;;82.20;43.72;;;-1.00;99.90;;;;;;5032962;28;20124;-71
2021/12/11 09:32:47;;;;;;;85.13;44.15;;;-1.00;99.90;;;;;;5016368;28;20037;-71
2021/12/11 09:35:24;;;;;;;83.32;43.72;;;-0.90;99.90;;;;;;5016132;28;20049;-71
2021/12/11 09:37:56;;;;;;;79.97;43.45;;;-0.80;99.90;;;;;;5016311;28;20046;-71
2021/12/11 09:40:36;;;;;;;85.45;46.60;;;-0.80;99.90;;;;;;5016597;28;20049;-72
2021/12/11 09:43:03;;;;;;;90.85;46.35;;;-0.70;99.90;;;;;;5016490;28;20048;-72
2021/12/11 09:45:40;;;;;;;87.47;47.38;;;-0.60;99.90;;;;;;5017023;28;20056;-73
2021/12/11 09:48:15;;;;;;;90.68;47.38;;;-0.60;99.90;;;;;;5004043;28;20226;-72
2021/12/11 09:50:54;;;;;;;87.57;47.92;;;-0.40;99.90;;;;;;5002175;28;20049;-72
2021/12/11 09:53:25;;;;;;;91.18;51.10;;;-0.40;99.90;;;;;;5005313;28;20052;-72
2021/12/11 09:55:51;;;;;;;97.93;51.95;;;-0.30;99.90;;;;;;5018387;28;20486;-73
2021/12/11 09:58:21;;;;;;;93.40;50.53;;;-0.20;99.90;;;;;;5003358;28;20121;-73
2021/12/11 10:00:52;;;;;;;93.85;51.88;;;-0.20;99.90;;;;;;5037712;28;20121;-72
2021/12/11 10:03:23;;;;;;;88.35;48.95;;;-0.10;99.90;;;;;;5045563;28;20033;-71
2021/12/11 10:05:56;;;;;;;99.63;51.05;;;-0.10;99.90;;;;;;5037122;28;20037;-71
2021/12/11 10:08:38;;;;;;;87.22;49.40;;;0.00;99.90;;;;;;5019183;28;20136;-70
2021/12/11 10:11:10;;;;;;;85.97;48.23;;;0.10;99.90;;;;;;5024755;28;20037;-70
2021/12/11 10:13:42;;;;;;;94.00;50.47;;;0.20;99.90;;;;;;4990356;28;20304;-70
2021/12/11 10:16:10;;;;;;;87.70;48.85;;;0.20;99.90;;;;;;5027664;28;20091;-71
2021/12/11 10:18:36;;;;;;;91.45;49.25;;;0.40;99.90;;;;;;5018077;28;20048;-70
2021/12/11 10:21:18;;;;;;;87.25;48.40;;;0.40;99.90;;;;;;5014786;28;20052;-70
2021/12/11 10:23:48;;;;;;;79.25;46.78;;;0.50;99.90;;;;;;4999569;28;20045;-70
2021/12/11 10:26:15;;;;;;;82.05;46.40;;;0.50;99.90;;;;;;5032423;28;20037;-72
2021/12/11 10:28:46;;;;;;;74.75;46.38;;;0.60;99.90;;;;;;5018933;28;20049;-71
2021/12/11 10:31:17;;;;;;;76.00;45.67;;;0.70;99.90;;;;;;5015713;28;20061;-71
2021/12/11 10:33:43;;;;;;;79.80;44.95;;;0.80;99.90;;;;;;4997191;28;20045;-71
2021/12/11 10:36:14;;;;;;;78.07;44.65;;;0.80;99.90;;;;;;5018905;28;20045;-71
2021/12/11 10:38:42;;;;;;;73.30;44.38;;;0.90;99.90;;;;;;5002921;28;20118;-72
2021/12/11 10:41:09;;;;;;;79.20;44.80;;;1.00;99.90;;;;;;5018450;28;20045;-71
2021/12/11 10:43:53;;;;;;;75.20;44.10;;;1.00;99.90;;;;;;5021330;28;20042;-71
2021/12/11 10:46:23;;;;;;;76.90;45.35;;;1.00;99.90;;;;;;5002172;28;20495;-71
2021/12/11 10:48:49;;;;;;;77.97;44.30;;;1.10;99.90;;;;;;5031560;28;20065;-71
2021/12/11 10:51:23;;;;;;;77.07;45.05;;;1.20;99.90;;;;;;5035910;28;20121;-72
2021/12/11 10:53:51;;;;;;;79.57;47.08;;;1.30;99.90;;;;;;5034786;28;20033;-72
2021/12/11 10:56:20;;;;;;;75.32;45.97;;;1.30;99.90;;;;;;5042677;28;20029;-71
2021/12/11 10:58:53;;;;;;;75.68;45.42;;;1.40;99.90;;;;;;5005827;28;20049;-73
2021/12/11 11:01:38;;;;;;;74.10;45.35;;;1.40;99.90;;;;;;5015726;28;20063;-73
2021/12/11 11:04:11;;;;;;;79.07;46.47;;;1.50;99.90;;;;;;5014118;28;20068;-72
2021/12/11 11:06:38;;;;;;;78.25;46.08;;;1.60;99.90;;;;;;4992484;28;20033;-73
2021/12/11 11:09:05;;;;;;;75.53;45.95;;;1.70;99.90;;;;;;5028623;28;20034;-73
2021/12/11 11:11:33;;;;;;;77.97;47.20;;;1.80;99.90;;;;;;5021060;28;20098;-72
2021/12/11 11:14:01;;;;;;;79.60;46.80;;;1.90;99.90;;;;;;5018013;28;20052;-73
2021/12/11 11:16:28;;;;;;;71.72;43.90;;;2.00;99.90;;;;;;5010853;28;20055;-74
2021/12/11 11:18:55;;;;;;;75.22;44.25;;;2.10;99.90;;;;;;5012043;28;20038;-73
2021/12/11 11:21:26;;;;;;;71.20;45.40;;;2.10;99.90;;;;;;5001911;28;20053;-72
2021/12/11 11:23:53;;;;;;;67.72;42.85;;;2.20;99.90;;;;;;5036093;28;20064;-72
2021/12/11 11:26:23;;;;;;;64.03;42.97;;;2.30;99.90;;;;;;5019802;28;20042;-74
2021/12/11 11:28:49;;;;;;;65.82;41.33;;;2.40;99.90;;;;;;5035270;28;20055;-73
2021/12/11 11:31:20;;;;;;;63.72;40.47;;;2.50;99.90;;;;;;5017783;28;20391;-73
2021/12/11 11:33:46;;;;;;;60.00;38.78;;;2.50;99.90;;;;;;5043417;23;20040;-75
2021/12/11 11:36:16;;;;;;;57.83;39.47;;;2.60;99.90;;;;;;5024543;28;20041;-75
2021/12/11 11:38:45;;;;;;;60.15;39.10;;;2.70;99.90;;;;;;5023328;28;20053;-75
2021/12/11 11:41:15;;;;;;;56.15;37.22;;;2.80;99.90;;;;;;5028310;28;20071;-75
2021/12/11 11:43:42;;;;;;;61.03;38.40;;;2.90;99.90;;;;;;5025425;28;20077;-76
2021/12/11 11:46:09;;;;;;;54.08;36.20;;;3.00;99.90;;;;;;5024335;28;20040;-75
2021/12/11 11:48:39;;;;;;;57.33;36.58;;;3.10;99.90;;;;;;5026862;28;20045;-76
2021/12/11 11:51:17;;;;;;;58.58;38.70;;;3.20;99.90;;;;;;5012261;28;20033;-75
2021/12/11 11:53:44;;;;;;;54.03;36.60;;;3.30;99.90;;;;;;5007245;28;20060;-76
2021/12/11 11:56:15;;;;;;;52.22;35.75;;;3.40;99.90;;;;;;5029227;28;20044;-76
2021/12/11 11:58:40;;;;;;;51.75;34.47;;;3.60;99.90;;;;;;5019226;28;20054;-76
2021/12/11 12:01:29;;;;;;;54.22;33.10;;;3.70;99.90;;;;;;5006767;28;20634;-76
2021/12/11 12:03:57;;;;;;;51.58;34.50;;;3.90;99.90;;;;;;5044013;28;20068;-76
2021/12/11 12:06:31;;;;;;;52.30;33.80;;;4.00;99.90;;;;;;5024506;28;20052;-76
2021/12/11 12:08:59;;;;;;;50.15;32.33;;;4.20;99.90;;;;;;5025046;28;20041;-76
2021/12/11 12:11:32;;;;;;;46.13;30.90;;;4.30;99.90;;;;;;5024657;28;20063;-76
2021/12/11 12:13:59;;;;;;;45.72;30.90;;;4.50;99.90;;;;;;5023382;28;20047;-76
2021/12/11 12:16:26;;;;;;;43.35;29.63;;;4.60;99.90;;;;;;5025321;28;20045;-74
2021/12/11 12:18:52;;;;;;;46.17;28.98;;;4.70;99.90;;;;;;5014365;28;20033;-75
2021/12/11 12:21:18;;;;;;;43.15;27.90;;;4.80;99.90;;;;;;5008990;28;20095;-76
2021/12/11 12:23:44;;;;;;;43.83;27.15;;;5.00;99.90;;;;;;5024814;28;20083;-74
2021/12/11 12:26:16;;;;;;;40.42;25.65;;;5.00;99.90;;;;;;5029280;28;20033;-76
2021/12/11 12:28:42;;;;;;;41.72;26.58;;;5.20;99.90;;;;;;5009052;28;20041;-75
2021/12/11 12:31:23;;;;;;;41.60;26.60;;;5.30;99.90;;;;;;5021279;28;20074;-76
2021/12/11 12:33:49;;;;;;;39.22;26.58;;;5.40;99.90;;;;;;4992659;28;20033;-75
2021/12/11 12:36:16;;;;;;;38.75;26.33;;;5.60;99.90;;;;;;5008154;28;20115;-75
2021/12/11 12:38:46;;;;;;;37.67;25.52;;;5.70;99.90;;;;;;5023691;28;20603;-75
2021/12/11 12:41:15;;;;;;;35.40;24.75;;;5.70;99.90;;;;;;5019997;28;20037;-74
2021/12/11 12:46:32;;;;;;;38.38;23.85;;;5.70;99.90;;;;;;5020954;28;20041;-73
2021/12/11 12:49:00;;;;;;;33.28;23.05;;;5.70;99.90;;;;;;5017114;28;20052;-76
2021/12/11 12:51:27;;;;;;;34.45;21.88;;;5.70;99.90;;;;;;5021333;28;20399;-76
2021/12/11 12:53:56;;;;;;;40.85;23.50;;;5.70;99.90;;;;;;5018215;28;20410;-75
2021/12/11 12:56:32;;;;;;;38.45;23.58;;;5.60;99.90;;;;;;5023905;28;20390;-74
2021/12/11 12:59:03;;;;;;;35.70;23.45;;;5.70;99.90;;;;;;5020717;28;20045;-75
2021/12/11 13:01:44;;;;;;;31.50;22.88;;;5.70;99.90;;;;;;5010762;28;20960;-75